sensor_id;sensor_type;location;lat;lon;timestamp;pressure;altitude;pressure_sealevel;temperature;humidity
25130;BME280;13308;50.860;13.664;2023-05-12T04:44:43;96757.38;;;12.06;92.14
25130;BME280;13308;50.860;13.664;2023-05-12T04:47:10;96754.22;;;12.24;92.35
25130;BME280;13308;50.860;13.664;2023-05-12T04:49:35;96756.63;;;12.38;91.87
25130;BME280;13308;50.860;13.664;2023-05-12T04:52:01;96762.09;;;12.41;91.85
25130;BME280;13308;50.860;13.664;2023-05-12T04:54:26;96764.06;;;12.57;91.21
25130;BME280;13308;50.860;13.664;2023-05-12T04:56:52;96757.41;;;12.54;91.47
25130;BME280;13308;50.860;13.664;2023-05-12T04:59:17;96756.47;;;12.77;92.22
25130;BME280;13308;50.860;13.664;2023-05-12T05:01:45;96753.66;;;12.93;89.73
25130;BME280;13308;50.860;13.664;2023-05-12T05:04:10;96755.56;;;13.12;89.35
25130;BME280;13308;50.860;13.664;2023-05-12T05:06:35;96749.06;;;13.18;86.47
25130;BME280;13308;50.860;13.664;2023-05-12T05:09:01;96760.25;;;12.99;88.46
25130;BME280;13308;50.860;13.664;2023-05-12T05:11:28;96758.41;;;13.08;90.05
25130;BME280;13308;50.860;13.664;2023-05-12T05:13:53;96766.91;;;13.17;87.49
25130;BME280;13308;50.860;13.664;2023-05-12T05:16:19;96768.31;;;13.09;88.72
25130;BME280;13308;50.860;13.664;2023-05-12T05:18:45;96762.16;;;13.02;89.56
25130;BME280;13308;50.860;13.664;2023-05-12T05:21:11;96771.31;;;13.15;86.87
25130;BME280;13308;50.860;13.664;2023-05-12T05:23:39;96770.53;;;13.14;87.37
25130;BME280;13308;50.860;13.664;2023-05-12T05:26:06;96762.47;;;13.20;88.42
25130;BME280;13308;50.860;13.664;2023-05-12T05:28:32;96777.44;;;13.22;87.88
25130;BME280;13308;50.860;13.664;2023-05-12T05:30:58;96772.19;;;13.40;86.97
25130;BME280;13308;50.860;13.664;2023-05-12T05:33:24;96764.50;;;13.60;84.71
25130;BME280;13308;50.860;13.664;2023-05-12T05:35:49;96771.94;;;13.63;85.55
25130;BME280;13308;50.860;13.664;2023-05-12T05:38:15;96774.50;;;13.70;84.91
25130;BME280;13308;50.860;13.664;2023-05-12T05:40:40;96788.69;;;13.72;85.10
25130;BME280;13308;50.860;13.664;2023-05-12T05:43:05;96784.81;;;13.70;88.64
25130;BME280;13308;50.860;13.664;2023-05-12T05:45:32;96786.25;;;13.74;90.79
25130;BME280;13308;50.860;13.664;2023-05-12T05:47:57;96789.19;;;13.83;91.09
25130;BME280;13308;50.860;13.664;2023-05-12T05:50:23;96779.56;;;14.00;92.32
25130;BME280;13308;50.860;13.664;2023-05-12T05:52:49;96788.34;;;14.11;92.36
25130;BME280;13308;50.860;13.664;2023-05-12T05:55:15;96788.50;;;14.33;92.35
25130;BME280;13308;50.860;13.664;2023-05-12T05:57:40;96792.38;;;14.48;91.58
25130;BME280;13308;50.860;13.664;2023-05-12T06:00:07;96790.06;;;14.71;90.64
25130;BME280;13308;50.860;13.664;2023-05-12T06:02:43;96785.91;;;14.88;88.84
25130;BME280;13308;50.860;13.664;2023-05-12T06:05:12;96799.88;;;15.10;89.63
25130;BME280;13308;50.860;13.664;2023-05-12T06:07:37;96809.63;;;15.14;86.19
25130;BME280;13308;50.860;13.664;2023-05-12T06:10:03;96798.94;;;15.25;85.59
25130;BME280;13308;50.860;13.664;2023-05-12T06:12:29;96805.34;;;15.47;85.85
25130;BME280;13308;50.860;13.664;2023-05-12T06:14:54;96807.81;;;15.67;86.36
25130;BME280;13308;50.860;13.664;2023-05-12T06:17:20;96806.66;;;15.77;86.69
25130;BME280;13308;50.860;13.664;2023-05-12T06:19:46;96812.34;;;15.95;85.51
25130;BME280;13308;50.860;13.664;2023-05-12T06:22:13;96815.94;;;16.26;85.66
25130;BME280;13308;50.860;13.664;2023-05-12T06:24:39;96822.31;;;16.35;82.64
25130;BME280;13308;50.860;13.664;2023-05-12T06:27:05;96815.91;;;16.47;79.56
25130;BME280;13308;50.860;13.664;2023-05-12T06:29:30;96813.78;;;16.51;76.77
25130;BME280;13308;50.860;13.664;2023-05-12T06:31:56;96819.66;;;16.53;76.27
25130;BME280;13308;50.860;13.664;2023-05-12T06:34:21;96828.91;;;16.81;76.60
25130;BME280;13308;50.860;13.664;2023-05-12T06:36:46;96821.09;;;16.97;75.47
25130;BME280;13308;50.860;13.664;2023-05-12T06:39:12;96823.63;;;17.31;74.76
25130;BME280;13308;50.860;13.664;2023-05-12T06:41:37;96829.41;;;17.64;73.11
25130;BME280;13308;50.860;13.664;2023-05-12T06:44:03;96824.44;;;18.04;70.69
25130;BME280;13308;50.860;13.664;2023-05-12T06:46:30;96829.81;;;18.52;71.25
25130;BME280;13308;50.860;13.664;2023-05-12T06:48:56;96831.03;;;19.34;66.68
25130;BME280;13308;50.860;13.664;2023-05-12T06:51:21;96831.34;;;19.74;63.24
25130;BME280;13308;50.860;13.664;2023-05-12T06:53:47;96829.56;;;19.85;62.12
25130;BME280;13308;50.860;13.664;2023-05-12T06:56:12;96834.66;;;19.87;61.75
25130;BME280;13308;50.860;13.664;2023-05-12T06:58:44;96837.22;;;19.99;61.21
25130;BME280;13308;50.860;13.664;2023-05-12T07:01:10;96832.97;;;20.04;60.64
25130;BME280;13308;50.860;13.664;2023-05-12T07:03:35;96837.00;;;20.26;56.36
25130;BME280;13308;50.860;13.664;2023-05-12T07:06:01;96833.78;;;20.91;54.79
25130;BME280;13308;50.860;13.664;2023-05-12T07:08:26;96837.91;;;21.45;46.74
25130;BME280;13308;50.860;13.664;2023-05-12T07:10:52;96843.78;;;22.47;44.62
25130;BME280;13308;50.860;13.664;2023-05-12T07:13:17;96840.81;;;22.10;46.04
25130;BME280;13308;50.860;13.664;2023-05-12T07:15:43;96832.34;;;21.85;48.88
25130;BME280;13308;50.860;13.664;2023-05-12T07:18:08;96842.28;;;21.46;43.48
25130;BME280;13308;50.860;13.664;2023-05-12T07:20:33;96836.69;;;21.11;45.17
25130;BME280;13308;50.860;13.664;2023-05-12T07:22:59;96833.78;;;20.91;44.27
25130;BME280;13308;50.860;13.664;2023-05-12T07:25:24;96837.63;;;21.08;43.91
25130;BME280;13308;50.860;13.664;2023-05-12T07:27:49;96842.78;;;21.30;44.21
25130;BME280;13308;50.860;13.664;2023-05-12T07:30:15;96832.00;;;21.23;45.04
25130;BME280;13308;50.860;13.664;2023-05-12T07:32:40;96848.34;;;23.01;41.18
25130;BME280;13308;50.860;13.664;2023-05-12T07:35:07;96851.84;;;23.58;39.77
25130;BME280;13308;50.860;13.664;2023-05-12T07:37:33;96844.28;;;23.75;39.72
25130;BME280;13308;50.860;13.664;2023-05-12T07:39:59;96843.19;;;22.94;40.46
25130;BME280;13308;50.860;13.664;2023-05-12T07:42:24;96843.19;;;23.67;39.54
25130;BME280;13308;50.860;13.664;2023-05-12T07:44:49;96847.41;;;24.63;40.19
25130;BME280;13308;50.860;13.664;2023-05-12T07:47:15;96846.41;;;25.43;40.04
25130;BME280;13308;50.860;13.664;2023-05-12T07:49:40;96847.47;;;26.19;39.28
25130;BME280;13308;50.860;13.664;2023-05-12T07:52:06;96861.13;;;27.01;39.10
25130;BME280;13308;50.860;13.664;2023-05-12T07:54:31;96863.91;;;27.07;35.09
25130;BME280;13308;50.860;13.664;2023-05-12T07:56:56;96856.72;;;26.71;34.08
25130;BME280;13308;50.860;13.664;2023-05-12T07:59:22;96848.31;;;25.97;37.03
25130;BME280;13308;50.860;13.664;2023-05-12T08:01:47;96860.88;;;26.64;36.20
25130;BME280;13308;50.860;13.664;2023-05-12T08:04:13;96868.75;;;27.47;36.49
25130;BME280;13308;50.860;13.664;2023-05-12T08:06:38;96873.22;;;27.90;34.16
25130;BME280;13308;50.860;13.664;2023-05-12T08:09:04;96855.91;;;25.40;34.57
25130;BME280;13308;50.860;13.664;2023-05-12T08:11:29;96863.59;;;26.35;36.60
25130;BME280;13308;50.860;13.664;2023-05-12T08:13:54;96868.94;;;26.44;38.90
25130;BME280;13308;50.860;13.664;2023-05-12T08:16:20;96871.66;;;26.71;36.08
25130;BME280;13308;50.860;13.664;2023-05-12T08:18:45;96864.09;;;25.71;37.24
25130;BME280;13308;50.860;13.664;2023-05-12T08:21:10;96868.78;;;25.30;35.58
25130;BME280;13308;50.860;13.664;2023-05-12T08:23:36;96860.00;;;25.61;37.03
25130;BME280;13308;50.860;13.664;2023-05-12T08:26:04;96866.91;;;25.71;37.14
25130;BME280;13308;50.860;13.664;2023-05-12T08:28:29;96868.63;;;26.01;37.03
25130;BME280;13308;50.860;13.664;2023-05-12T08:30:56;96864.81;;;25.93;38.97
25130;BME280;13308;50.860;13.664;2023-05-12T08:33:21;96858.97;;;24.98;40.15
25130;BME280;13308;50.860;13.664;2023-05-12T08:35:46;96861.56;;;25.40;40.33
25130;BME280;13308;50.860;13.664;2023-05-12T08:38:12;96863.00;;;25.85;40.29
25130;BME280;13308;50.860;13.664;2023-05-12T08:40:45;96853.97;;;25.97;39.24
25130;BME280;13308;50.860;13.664;2023-05-12T08:43:24;96858.53;;;26.17;39.69
25130;BME280;13308;50.860;13.664;2023-05-12T08:45:55;96879.59;;;26.21;35.98
25130;BME280;13308;50.860;13.664;2023-05-12T08:48:25;96875.88;;;25.75;37.67
25130;BME280;13308;50.860;13.664;2023-05-12T08:50:53;96865.66;;;25.17;38.57
25130;BME280;13308;50.860;13.664;2023-05-12T08:53:20;96862.38;;;24.05;37.53
25130;BME280;13308;50.860;13.664;2023-05-12T08:55:46;96862.47;;;24.38;38.20
25130;BME280;13308;50.860;13.664;2023-05-12T08:58:13;96864.78;;;24.34;36.71
25130;BME280;13308;50.860;13.664;2023-05-12T09:00:40;96866.81;;;24.33;35.58
25130;BME280;13308;50.860;13.664;2023-05-12T09:03:05;96880.53;;;24.04;37.57
25130;BME280;13308;50.860;13.664;2023-05-12T09:05:32;96868.22;;;24.93;39.02
25130;BME280;13308;50.860;13.664;2023-05-12T09:07:59;96866.19;;;25.15;37.32
25130;BME280;13308;50.860;13.664;2023-05-12T09:10:26;96882.84;;;25.63;34.28
25130;BME280;13308;50.860;13.664;2023-05-12T09:12:53;96879.53;;;25.48;35.24
25130;BME280;13308;50.860;13.664;2023-05-12T09:15:25;96874.91;;;25.17;38.40
25130;BME280;13308;50.860;13.664;2023-05-12T09:17:51;96885.34;;;25.99;39.02
25130;BME280;13308;50.860;13.664;2023-05-12T09:20:16;96879.72;;;25.83;34.59
25130;BME280;13308;50.860;13.664;2023-05-12T09:22:42;96892.41;;;26.33;36.71
25130;BME280;13308;50.860;13.664;2023-05-12T09:25:16;96889.16;;;26.13;33.71
25130;BME280;13308;50.860;13.664;2023-05-12T09:27:46;96882.88;;;25.35;34.94
25130;BME280;13308;50.860;13.664;2023-05-12T09:30:12;96862.84;;;24.95;38.97
25130;BME280;13308;50.860;13.664;2023-05-12T09:32:38;96883.41;;;25.39;35.87
25130;BME280;13308;50.860;13.664;2023-05-12T09:35:09;96883.66;;;25.25;35.94
25130;BME280;13308;50.860;13.664;2023-05-12T09:37:36;96874.13;;;25.22;39.86
25130;BME280;13308;50.860;13.664;2023-05-12T09:40:03;96871.28;;;24.89;39.45
25130;BME280;13308;50.860;13.664;2023-05-12T09:42:30;96870.28;;;25.03;38.46
25130;BME280;13308;50.860;13.664;2023-05-12T09:45:06;96870.53;;;24.94;39.14
25130;BME280;13308;50.860;13.664;2023-05-12T09:47:37;96874.84;;;24.57;38.79
25130;BME280;13308;50.860;13.664;2023-05-12T09:50:05;96860.25;;;24.64;39.46
25130;BME280;13308;50.860;13.664;2023-05-12T09:52:35;96865.53;;;24.29;37.04
25130;BME280;13308;50.860;13.664;2023-05-12T09:55:05;96864.53;;;23.06;39.42
25130;BME280;13308;50.860;13.664;2023-05-12T09:57:34;96869.88;;;23.04;40.33
25130;BME280;13308;50.860;13.664;2023-05-12T10:00:02;96870.59;;;23.66;42.92
25130;BME280;13308;50.860;13.664;2023-05-12T10:02:31;96873.22;;;24.34;40.47
25130;BME280;13308;50.860;13.664;2023-05-12T10:05:00;96877.56;;;24.29;41.22
25130;BME280;13308;50.860;13.664;2023-05-12T10:07:27;96869.91;;;23.82;42.21
25130;BME280;13308;50.860;13.664;2023-05-12T10:09:54;96868.94;;;23.49;41.50
25130;BME280;13308;50.860;13.664;2023-05-12T10:12:22;96875.59;;;23.15;41.62
25130;BME280;13308;50.860;13.664;2023-05-12T10:14:48;96877.72;;;23.62;39.17
25130;BME280;13308;50.860;13.664;2023-05-12T10:17:14;96865.16;;;23.99;42.50
25130;BME280;13308;50.860;13.664;2023-05-12T10:19:40;96869.91;;;24.46;39.13
25130;BME280;13308;50.860;13.664;2023-05-12T10:22:09;96867.72;;;23.97;43.36
25130;BME280;13308;50.860;13.664;2023-05-12T10:24:34;96865.19;;;24.16;38.76
25130;BME280;13308;50.860;13.664;2023-05-12T10:27:03;96864.19;;;23.66;40.07
25130;BME280;13308;50.860;13.664;2023-05-12T10:29:30;96878.50;;;23.57;39.52
25130;BME280;13308;50.860;13.664;2023-05-12T10:31:57;96864.94;;;22.42;41.03
25130;BME280;13308;50.860;13.664;2023-05-12T10:34:29;96874.94;;;22.23;41.46
25130;BME280;13308;50.860;13.664;2023-05-12T10:36:56;96877.78;;;22.49;40.52
25130;BME280;13308;50.860;13.664;2023-05-12T10:39:29;96871.00;;;22.35;40.99
25130;BME280;13308;50.860;13.664;2023-05-12T10:42:08;96867.88;;;21.88;42.88
25130;BME280;13308;50.860;13.664;2023-05-12T10:44:34;96868.22;;;22.41;43.71
25130;BME280;13308;50.860;13.664;2023-05-12T10:47:00;96863.16;;;22.96;45.17
25130;BME280;13308;50.860;13.664;2023-05-12T10:49:33;96875.50;;;23.35;41.97
25130;BME280;13308;50.860;13.664;2023-05-12T10:52:03;96877.38;;;23.49;40.65
25130;BME280;13308;50.860;13.664;2023-05-12T10:54:28;96882.34;;;23.23;39.28
25130;BME280;13308;50.860;13.664;2023-05-12T10:56:58;96886.44;;;23.22;43.15
25130;BME280;13308;50.860;13.664;2023-05-12T10:59:24;96885.91;;;23.23;39.05
25130;BME280;13308;50.860;13.664;2023-05-12T11:02:02;96886.94;;;23.26;39.52
25130;BME280;13308;50.860;13.664;2023-05-12T11:04:50;96878.25;;;23.24;41.62
25130;BME280;13308;50.860;13.664;2023-05-12T11:07:35;96872.13;;;23.67;44.25
25130;BME280;13308;50.860;13.664;2023-05-12T11:10:02;96874.09;;;23.56;43.15
25130;BME280;13308;50.860;13.664;2023-05-12T11:12:30;96868.06;;;23.74;40.12
25130;BME280;13308;50.860;13.664;2023-05-12T11:14:58;96881.31;;;24.10;39.29
25130;BME280;13308;50.860;13.664;2023-05-12T11:17:23;96868.25;;;24.01;44.25
25130;BME280;13308;50.860;13.664;2023-05-12T11:19:49;96875.78;;;24.32;39.65
25130;BME280;13308;50.860;13.664;2023-05-12T11:22:17;96869.97;;;24.63;42.57
25130;BME280;13308;50.860;13.664;2023-05-12T11:24:44;96873.88;;;25.20;41.76
25130;BME280;13308;50.860;13.664;2023-05-12T11:27:14;96867.88;;;25.95;42.86
25130;BME280;13308;50.860;13.664;2023-05-12T11:29:41;96871.31;;;25.28;37.46
25130;BME280;13308;50.860;13.664;2023-05-12T11:32:10;96870.56;;;25.00;40.47
25130;BME280;13308;50.860;13.664;2023-05-12T11:34:37;96880.00;;;24.64;39.44
25130;BME280;13308;50.860;13.664;2023-05-12T11:37:04;96877.59;;;23.82;38.54
25130;BME280;13308;50.860;13.664;2023-05-12T11:39:30;96892.28;;;23.55;39.48
25130;BME280;13308;50.860;13.664;2023-05-12T11:42:01;96883.31;;;23.20;41.46
25130;BME280;13308;50.860;13.664;2023-05-12T11:44:28;96879.03;;;22.99;41.78
25130;BME280;13308;50.860;13.664;2023-05-12T11:49:22;96872.72;;;22.53;44.05
25130;BME280;13308;50.860;13.664;2023-05-12T11:51:50;96886.78;;;22.53;43.30
25130;BME280;13308;50.860;13.664;2023-05-12T11:54:15;96879.28;;;22.44;42.57
25130;BME280;13308;50.860;13.664;2023-05-12T11:56:47;96880.59;;;22.49;43.69
25130;BME280;13308;50.860;13.664;2023-05-12T11:59:12;96879.03;;;22.99;43.81
25130;BME280;13308;50.860;13.664;2023-05-12T12:01:44;96881.63;;;23.02;44.50
25130;BME280;13308;50.860;13.664;2023-05-12T12:04:12;96883.84;;;22.93;43.28
25130;BME280;13308;50.860;13.664;2023-05-12T12:06:43;96890.34;;;22.79;44.51
25130;BME280;13308;50.860;13.664;2023-05-12T12:09:08;96891.00;;;22.63;44.71
25130;BME280;13308;50.860;13.664;2023-05-12T12:11:34;96890.88;;;22.52;43.45
25130;BME280;13308;50.860;13.664;2023-05-12T12:13:59;96893.41;;;22.30;43.89
25130;BME280;13308;50.860;13.664;2023-05-12T12:16:26;96896.06;;;21.93;45.49
25130;BME280;13308;50.860;13.664;2023-05-12T12:18:52;96897.38;;;21.78;43.50
25130;BME280;13308;50.860;13.664;2023-05-12T12:21:17;96897.06;;;21.76;43.65
25130;BME280;13308;50.860;13.664;2023-05-12T12:23:43;96891.31;;;22.45;44.04
25130;BME280;13308;50.860;13.664;2023-05-12T12:26:08;96891.25;;;22.19;45.95
25130;BME280;13308;50.860;13.664;2023-05-12T12:28:33;96879.53;;;22.21;48.19
25130;BME280;13308;50.860;13.664;2023-05-12T12:30:59;96885.91;;;22.01;46.24
25130;BME280;13308;50.860;13.664;2023-05-12T12:33:25;96887.66;;;22.90;43.53
25130;BME280;13308;50.860;13.664;2023-05-12T12:35:50;96892.84;;;24.06;45.75
25130;BME280;13308;50.860;13.664;2023-05-12T12:38:15;96891.97;;;24.48;44.12
25130;BME280;13308;50.860;13.664;2023-05-12T12:40:41;96894.34;;;24.66;43.41
25130;BME280;13308;50.860;13.664;2023-05-12T12:43:06;96880.28;;;25.04;43.28
25130;BME280;13308;50.860;13.664;2023-05-12T12:45:32;96885.69;;;24.97;38.54
25130;BME280;13308;50.860;13.664;2023-05-12T12:47:57;96896.13;;;26.06;40.76
25130;BME280;13308;50.860;13.664;2023-05-12T12:50:23;96889.22;;;25.91;39.87
25130;BME280;13308;50.860;13.664;2023-05-12T12:52:49;96903.25;;;27.51;36.09
25130;BME280;13308;50.860;13.664;2023-05-12T12:55:14;96912.03;;;28.01;35.20
25130;BME280;13308;50.860;13.664;2023-05-12T12:57:39;96909.41;;;28.03;35.88
25130;BME280;13308;50.860;13.664;2023-05-12T13:00:05;96891.88;;;28.04;34.25
25130;BME280;13308;50.860;13.664;2023-05-12T13:02:32;96889.56;;;27.79;35.50
25130;BME280;13308;50.860;13.664;2023-05-12T13:04:58;96899.00;;;26.58;33.47
25130;BME280;13308;50.860;13.664;2023-05-12T13:07:27;96883.66;;;26.37;34.62
25130;BME280;13308;50.860;13.664;2023-05-12T13:09:53;96892.94;;;27.48;36.25
25130;BME280;13308;50.860;13.664;2023-05-12T13:12:18;96903.03;;;28.45;32.75
25130;BME280;13308;50.860;13.664;2023-05-12T13:14:43;96882.22;;;28.37;37.23
25130;BME280;13308;50.860;13.664;2023-05-12T13:17:09;96890.28;;;28.09;33.79
25130;BME280;13308;50.860;13.664;2023-05-12T13:19:34;96879.47;;;28.50;33.97
25130;BME280;13308;50.860;13.664;2023-05-12T13:22:00;96897.19;;;27.65;35.00
25130;BME280;13308;50.860;13.664;2023-05-12T13:24:25;96896.72;;;26.91;34.27
25130;BME280;13308;50.860;13.664;2023-05-12T13:26:50;96886.09;;;26.00;34.02
25130;BME280;13308;50.860;13.664;2023-05-12T13:29:16;96885.94;;;25.15;38.00
25130;BME280;13308;50.860;13.664;2023-05-12T13:31:41;96885.75;;;24.27;40.35
25130;BME280;13308;50.860;13.664;2023-05-12T13:34:07;96881.69;;;23.81;41.80
25130;BME280;13308;50.860;13.664;2023-05-12T13:36:32;96886.06;;;23.40;42.21
25130;BME280;13308;50.860;13.664;2023-05-12T13:38:59;96893.38;;;23.01;43.96
25130;BME280;13308;50.860;13.664;2023-05-12T13:41:24;96885.47;;;22.74;45.63
25130;BME280;13308;50.860;13.664;2023-05-12T13:43:49;96888.94;;;22.18;48.40
25130;BME280;13308;50.860;13.664;2023-05-12T13:46:15;96874.53;;;21.90;49.83
25130;BME280;13308;50.860;13.664;2023-05-12T13:48:40;96885.84;;;21.76;48.30
25130;BME280;13308;50.860;13.664;2023-05-12T13:51:05;96885.81;;;21.56;49.85
25130;BME280;13308;50.860;13.664;2023-05-12T13:53:31;96888.66;;;21.41;49.17
25130;BME280;13308;50.860;13.664;2023-05-12T13:56:13;96890.50;;;21.30;50.12
25130;BME280;13308;50.860;13.664;2023-05-12T13:58:38;96888.09;;;21.23;50.69
25130;BME280;13308;50.860;13.664;2023-05-12T14:01:04;96877.13;;;20.90;52.58
25130;BME280;13308;50.860;13.664;2023-05-12T14:03:29;96890.16;;;20.79;53.11
25130;BME280;13308;50.860;13.664;2023-05-12T14:05:54;96886.00;;;20.60;55.39
25130;BME280;13308;50.860;13.664;2023-05-12T14:08:20;96887.75;;;20.43;55.62
25130;BME280;13308;50.860;13.664;2023-05-12T14:10:46;96885.31;;;20.36;57.57
25130;BME280;13308;50.860;13.664;2023-05-12T14:13:11;96884.00;;;20.08;60.33
25130;BME280;13308;50.860;13.664;2023-05-12T14:15:37;96886.03;;;19.84;65.75
25130;BME280;13308;50.860;13.664;2023-05-12T14:18:03;96885.25;;;19.60;66.94
25130;BME280;13308;50.860;13.664;2023-05-12T14:20:28;96866.19;;;19.73;68.02
25130;BME280;13308;50.860;13.664;2023-05-12T14:22:53;96874.81;;;19.84;67.39
25130;BME280;13308;50.860;13.664;2023-05-12T14:25:19;96876.38;;;19.85;66.17
25130;BME280;13308;50.860;13.664;2023-05-12T14:27:44;96878.81;;;19.92;66.09
25130;BME280;13308;50.860;13.664;2023-05-12T14:30:10;96884.25;;;19.72;64.59
25130;BME280;13308;50.860;13.664;2023-05-12T14:32:35;96887.03;;;19.72;64.36
25130;BME280;13308;50.860;13.664;2023-05-12T14:35:01;96888.47;;;19.91;63.26
25130;BME280;13308;50.860;13.664;2023-05-12T14:37:26;96898.63;;;20.03;53.63
25130;BME280;13308;50.860;13.664;2023-05-12T14:39:51;96893.66;;;20.07;53.58
25130;BME280;13308;50.860;13.664;2023-05-12T14:42:19;96899.88;;;19.78;51.72
25130;BME280;13308;50.860;13.664;2023-05-12T14:44:44;96903.84;;;19.72;55.69
25130;BME280;13308;50.860;13.664;2023-05-12T14:47:09;96914.16;;;19.66;55.42
25130;BME280;13308;50.860;13.664;2023-05-12T14:49:35;96909.47;;;19.63;56.35
25130;BME280;13308;50.860;13.664;2023-05-12T14:52:01;96912.16;;;19.57;55.27
25130;BME280;13308;50.860;13.664;2023-05-12T14:54:26;96919.75;;;19.66;55.08
25130;BME280;13308;50.860;13.664;2023-05-12T14:56:52;96917.22;;;19.68;56.35
25130;BME280;13308;50.860;13.664;2023-05-12T14:59:17;96911.63;;;19.68;56.20
25130;BME280;13308;50.860;13.664;2023-05-12T15:01:42;96908.66;;;19.48;56.96
25130;BME280;13308;50.860;13.664;2023-05-12T15:04:08;96907.47;;;19.40;56.73
25130;BME280;13308;50.860;13.664;2023-05-12T15:06:33;96912.69;;;19.47;56.10
25130;BME280;13308;50.860;13.664;2023-05-12T15:08:58;96913.16;;;19.45;56.78
25130;BME280;13308;50.860;13.664;2023-05-12T15:11:24;96911.81;;;19.41;56.71
25130;BME280;13308;50.860;13.664;2023-05-12T15:13:50;96904.53;;;19.34;53.89
25130;BME280;13308;50.860;13.664;2023-05-12T15:16:15;96905.56;;;19.46;54.68
25130;BME280;13308;50.860;13.664;2023-05-12T15:18:40;96905.25;;;19.44;55.88
25130;BME280;13308;50.860;13.664;2023-05-12T15:21:06;96900.91;;;19.43;56.68
25130;BME280;13308;50.860;13.664;2023-05-12T15:23:31;96902.19;;;19.33;56.39
25130;BME280;13308;50.860;13.664;2023-05-12T15:25:57;96899.91;;;19.23;54.33
25130;BME280;13308;50.860;13.664;2023-05-12T15:28:22;96899.34;;;19.42;55.26
25130;BME280;13308;50.860;13.664;2023-05-12T15:30:54;96892.75;;;19.54;54.33
25130;BME280;13308;50.860;13.664;2023-05-12T15:33:20;96900.69;;;19.79;53.92
25130;BME280;13308;50.860;13.664;2023-05-12T15:35:46;96895.25;;;19.75;53.58
25130;BME280;13308;50.860;13.664;2023-05-12T15:38:11;96895.44;;;19.72;nan
25130;BME280;13308;50.860;13.664;2023-05-12T15:40:37;96891.72;;;19.89;53.46
25130;BME280;13308;50.860;13.664;2023-05-12T15:43:03;96905.75;;;19.66;55.69
25130;BME280;13308;50.860;13.664;2023-05-12T15:45:29;96901.97;;;19.69;54.50
25130;BME280;13308;50.860;13.664;2023-05-12T15:47:55;96901.97;;;19.69;54.17
25130;BME280;13308;50.860;13.664;2023-05-12T15:50:21;96896.81;;;20.00;53.77
25130;BME280;13308;50.860;13.664;2023-05-12T15:52:46;96896.38;;;19.92;54.23
25130;BME280;13308;50.860;13.664;2023-05-12T15:55:12;96896.25;;;19.87;52.79
25130;BME280;13308;50.860;13.664;2023-05-12T15:57:37;96899.88;;;19.78;54.97
25130;BME280;13308;50.860;13.664;2023-05-12T16:00:02;96901.00;;;19.16;55.45
25130;BME280;13308;50.860;13.664;2023-05-12T16:02:38;96889.28;;;18.35;58.07
25130;BME280;13308;50.860;13.664;2023-05-12T16:05:03;96891.28;;;18.07;59.34
25130;BME280;13308;50.860;13.664;2023-05-12T16:07:29;96898.56;;;18.05;60.45
25130;BME280;13308;50.860;13.664;2023-05-12T16:09:55;96898.41;;;17.90;61.61
25130;BME280;13308;50.860;13.664;2023-05-12T16:12:21;96897.75;;;17.50;63.87
25130;BME280;13308;50.860;13.664;2023-05-12T16:14:49;96897.47;;;17.57;61.74
25130;BME280;13308;50.860;13.664;2023-05-12T16:17:15;96898.66;;;17.38;63.15
25130;BME280;13308;50.860;13.664;2023-05-12T16:19:40;96890.78;;;17.06;63.70
25130;BME280;13308;50.860;13.664;2023-05-12T16:22:06;96893.00;;;17.20;63.22
25130;BME280;13308;50.860;13.664;2023-05-12T16:24:31;96892.94;;;17.02;62.97
25130;BME280;13308;50.860;13.664;2023-05-12T16:26:56;96888.78;;;17.16;62.23
25130;BME280;13308;50.860;13.664;2023-05-12T16:29:23;96889.59;;;17.25;62.55
25130;BME280;13308;50.860;13.664;2023-05-12T16:31:49;96899.03;;;17.19;62.07
25130;BME280;13308;50.860;13.664;2023-05-12T16:34:14;96899.72;;;17.01;62.37
25130;BME280;13308;50.860;13.664;2023-05-12T16:36:39;96913.63;;;16.92;62.78
25130;BME280;13308;50.860;13.664;2023-05-12T16:39:05;96946.41;;;16.88;66.66
25130;BME280;13308;50.860;13.664;2023-05-12T16:41:30;96982.94;;;16.60;78.12
25130;BME280;13308;50.860;13.664;2023-05-12T16:43:55;96972.59;;;15.33;88.91
25130;BME280;13308;50.860;13.664;2023-05-12T16:46:21;96982.81;;;14.58;100.00
25130;BME280;13308;50.860;13.664;2023-05-12T16:48:48;96986.00;;;13.99;100.00
25130;BME280;13308;50.860;13.664;2023-05-12T16:51:13;96965.88;;;13.51;100.00
25130;BME280;13308;50.860;13.664;2023-05-12T16:53:39;96943.56;;;12.90;100.00
25130;BME280;13308;50.860;13.664;2023-05-12T16:56:05;96957.88;;;12.69;100.00
25130;BME280;13308;50.860;13.664;2023-05-12T16:58:30;96954.34;;;12.49;100.00
25130;BME280;13308;50.860;13.664;2023-05-12T17:00:57;96938.78;;;12.20;100.00
25130;BME280;13308;50.860;13.664;2023-05-12T17:03:22;96938.34;;;12.21;100.00
25130;BME280;13308;50.860;13.664;2023-05-12T17:05:48;96920.69;;;12.15;100.00
25130;BME280;13308;50.860;13.664;2023-05-12T17:08:14;96917.56;;;12.33;100.00
25130;BME280;13308;50.860;13.664;2023-05-12T17:10:39;96910.97;;;12.27;100.00
25130;BME280;13308;50.860;13.664;2023-05-12T17:13:05;96907.63;;;12.35;100.00
25130;BME280;13308;50.860;13.664;2023-05-12T17:15:30;96907.00;;;12.28;100.00
25130;BME280;13308;50.860;13.664;2023-05-12T17:17:56;96905.66;;;12.16;100.00
25130;BME280;13308;50.860;13.664;2023-05-12T17:20:21;96908.56;;;12.09;100.00
25130;BME280;13308;50.860;13.664;2023-05-12T17:22:47;96912.66;;;12.01;100.00
25130;BME280;13308;50.860;13.664;2023-05-12T17:25:16;96917.50;;;11.97;100.00
25130;BME280;13308;50.860;13.664;2023-05-12T17:27:42;96916.66;;;12.00;100.00
25130;BME280;13308;50.860;13.664;2023-05-12T17:30:08;96916.22;;;12.02;100.00
25130;BME280;13308;50.860;13.664;2023-05-12T17:32:33;96919.97;;;12.11;100.00